createdAt,value
2022-10-09T00:01:29.894Z,87.48
2022-10-09T00:04:32.822Z,87.28
2022-10-09T00:07:35.455Z,86.58
2022-10-09T00:10:45.981Z,86.13
2022-10-09T00:13:49.940Z,85.91
2022-10-09T00:16:54.824Z,85.49
2022-10-09T00:19:57.417Z,85.71
2022-10-09T00:23:00.408Z,85.85
2022-10-09T00:26:02.968Z,85.80
2022-10-09T00:29:05.894Z,86.29
2022-10-09T00:32:08.515Z,86.25
2022-10-09T00:35:12.493Z,86.18
2022-10-09T00:38:15.249Z,85.99
2022-10-09T00:41:22.771Z,86.04
2022-10-09T00:44:49.126Z,86.03
2022-10-09T00:47:57.606Z,86.10
2022-10-09T00:51:02.054Z,85.89
2022-10-09T00:54:11.870Z,87.28
2022-10-09T00:57:14.779Z,87.52
2022-10-09T01:00:18.248Z,87.54
2022-10-09T01:03:20.908Z,87.14
2022-10-09T01:06:54.829Z,87.78
2022-10-09T01:10:05.983Z,89.24
2022-10-09T01:13:45.317Z,89.21
2022-10-09T01:16:56.998Z,88.20
2022-10-09T01:20:19.666Z,87.75
2022-10-09T01:23:43.816Z,87.35
2022-10-09T01:26:59.053Z,87.21
2022-10-09T01:30:09.706Z,86.90
2022-10-09T01:33:13.560Z,87.29
2022-10-09T01:36:19.051Z,87.12
2022-10-09T01:39:24.096Z,86.74
2022-10-09T01:42:29.490Z,87.64
2022-10-09T01:45:43.814Z,86.67
2022-10-09T01:49:20.984Z,86.32
2022-10-09T01:52:45.426Z,86.43
2022-10-09T01:56:00.127Z,86.64
2022-10-09T01:59:15.800Z,88.00
2022-10-09T02:02:21.120Z,87.17
2022-10-09T02:05:28.270Z,86.79
2022-10-09T02:08:33.429Z,86.64
2022-10-09T02:11:39.734Z,86.92
2022-10-09T02:14:42.386Z,87.12
2022-10-09T02:17:49.744Z,88.69
2022-10-09T02:20:56.917Z,89.41
2022-10-09T02:24:02.229Z,90.51
2022-10-09T02:27:05.572Z,90.75
2022-10-09T02:30:10.043Z,91.15
2022-10-09T02:33:13.803Z,92.18
2022-10-09T02:36:16.675Z,91.14
2022-10-09T02:39:20.777Z,90.42
2022-10-09T02:42:26.131Z,90.60
2022-10-09T02:45:28.899Z,91.23
2022-10-09T02:48:31.963Z,90.08
2022-10-09T02:51:34.887Z,90.96
2022-10-09T02:54:37.955Z,90.01
2022-10-09T02:57:40.935Z,89.80
2022-10-09T03:00:43.894Z,89.25
2022-10-09T03:03:46.773Z,88.70
2022-10-09T03:06:49.694Z,89.07
2022-10-09T03:09:52.848Z,89.11
2022-10-09T03:12:56.140Z,89.00
2022-10-09T03:16:09.720Z,88.00
2022-10-09T03:19:13.279Z,87.43
2022-10-09T03:22:15.850Z,90.19
2022-10-09T03:25:18.912Z,90.72
2022-10-09T03:28:22.628Z,91.15
2022-10-09T03:31:50.488Z,90.67
2022-10-09T03:34:49.603Z,90.43
2022-10-09T03:37:52.614Z,89.22
2022-10-09T03:40:55.421Z,88.70
2022-10-09T03:43:58.306Z,88.64
2022-10-09T03:47:00.952Z,88.39
2022-10-09T03:50:04.097Z,88.22
2022-10-09T03:53:08.357Z,88.42
2022-10-09T03:56:11.505Z,88.48
2022-10-09T03:59:14.258Z,88.44
2022-10-09T04:02:17.236Z,88.86
2022-10-09T04:05:20.572Z,88.26
2022-10-09T04:08:23.292Z,87.60
2022-10-09T04:11:26.272Z,87.50
2022-10-09T04:14:31.776Z,87.87
2022-10-09T04:17:34.871Z,89.52
2022-10-09T04:20:37.508Z,90.18
2022-10-09T04:23:40.704Z,89.51
2022-10-09T04:26:43.946Z,89.01
2022-10-09T04:29:48.118Z,88.48
2022-10-09T04:32:51.016Z,88.62
2022-10-09T04:35:55.540Z,88.92
2022-10-09T04:38:58.294Z,88.72
2022-10-09T04:42:01.285Z,88.50
2022-10-09T04:45:04.673Z,88.34
2022-10-09T04:48:07.597Z,87.72
2022-10-09T04:51:12.484Z,87.75
2022-10-09T04:54:15.483Z,88.37
2022-10-09T04:57:18.144Z,90.51
2022-10-09T05:00:21.097Z,91.09
2022-10-09T05:03:24.798Z,92.70
2022-10-09T05:06:27.755Z,91.42
2022-10-09T05:09:30.332Z,91.39
2022-10-09T05:12:34.443Z,89.93
2022-10-09T05:15:37.970Z,89.96
2022-10-09T05:18:49.649Z,90.13
2022-10-09T05:21:52.283Z,90.81
2022-10-09T05:24:55.167Z,90.97
2022-10-09T05:28:00.522Z,91.13
2022-10-09T05:31:05.034Z,91.14
2022-10-09T05:34:08.867Z,91.80
2022-10-09T05:37:11.814Z,91.84
2022-10-09T05:40:14.415Z,91.99
2022-10-09T05:43:17.360Z,91.69
2022-10-09T05:46:21.271Z,91.45
2022-10-09T05:49:24.222Z,91.49
2022-10-09T05:52:26.807Z,91.41
2022-10-09T05:55:29.719Z,91.90
2022-10-09T05:58:32.313Z,91.95
2022-10-09T06:01:38.660Z,91.97
2022-10-09T06:04:41.721Z,91.91
2022-10-09T06:07:46.840Z,92.00
2022-10-09T06:10:49.811Z,92.06
2022-10-09T06:13:52.444Z,91.81
2022-10-09T06:16:55.523Z,91.60
2022-10-09T06:19:58.062Z,90.37
2022-10-09T06:23:01.009Z,90.09
2022-10-09T06:26:07.799Z,89.82
2022-10-09T06:29:10.828Z,89.80
2022-10-09T06:32:13.402Z,89.91
2022-10-09T06:35:16.328Z,89.38
2022-10-09T06:38:18.912Z,88.60
2022-10-09T06:41:24.555Z,87.55
2022-10-09T06:44:27.221Z,87.19
2022-10-09T06:47:30.157Z,84.51
2022-10-09T06:50:35.869Z,83.63
2022-10-09T06:53:50.263Z,83.97
2022-10-09T06:56:54.635Z,84.17
2022-10-09T06:59:57.606Z,83.98
2022-10-09T07:03:00.291Z,83.67
2022-10-09T07:06:23.873Z,83.26
2022-10-09T07:09:26.600Z,83.02
2022-10-09T07:12:31.600Z,82.52
2022-10-09T07:15:34.346Z,82.79
2022-10-09T07:18:37.700Z,82.64
2022-10-09T07:21:44.033Z,82.94
2022-10-09T07:24:47.862Z,82.13
2022-10-09T07:27:50.499Z,82.03
2022-10-09T07:30:54.221Z,81.53
2022-10-09T07:33:57.393Z,81.77
2022-10-09T07:37:00.352Z,80.97
2022-10-09T07:40:03.317Z,80.78
2022-10-09T07:43:07.337Z,80.29
2022-10-09T07:46:15.340Z,79.15
2022-10-09T07:49:19.992Z,79.28
2022-10-09T07:52:22.691Z,78.89
2022-10-09T07:55:25.684Z,78.10
2022-10-09T07:58:29.427Z,76.53
2022-10-09T08:01:36.025Z,75.19
2022-10-09T08:04:38.980Z,74.90
2022-10-09T08:07:41.603Z,74.71
2022-10-09T08:10:44.465Z,74.40
2022-10-09T08:13:49.002Z,73.94
2022-10-09T08:16:51.880Z,73.01
2022-10-09T08:19:54.666Z,70.87
2022-10-09T08:22:57.779Z,66.51
2022-10-09T08:26:00.851Z,65.28
2022-10-09T08:29:05.861Z,64.27
2022-10-09T08:32:08.430Z,60.88
2022-10-09T08:35:12.968Z,62.96
2022-10-09T08:38:37.529Z,59.27
2022-10-09T08:41:55.194Z,56.52
2022-10-09T08:44:57.813Z,53.74
2022-10-09T08:48:05.988Z,50.71
2022-10-09T08:51:18.818Z,48.45
2022-10-09T08:54:35.982Z,45.61
2022-10-09T08:57:39.956Z,45.95
2022-10-09T09:00:55.212Z,44.14
2022-10-09T09:04:30.354Z,43.22
2022-10-09T09:08:00.914Z,42.92
2022-10-09T09:11:23.705Z,40.65
2022-10-09T09:14:32.833Z,38.01
2022-10-09T09:17:57.412Z,38.03
2022-10-09T09:21:16.068Z,40.30
2022-10-09T09:24:21.370Z,40.84
2022-10-09T09:27:36.933Z,39.67
2022-10-09T09:30:50.811Z,37.15
2022-10-09T09:34:05.770Z,36.94
2022-10-09T09:37:11.464Z,34.50
2022-10-09T09:40:36.802Z,36.61
2022-10-09T09:43:39.019Z,34.60
2022-10-09T09:46:42.508Z,35.78
2022-10-09T09:49:59.591Z,33.29
2022-10-09T09:53:07.907Z,33.23
2022-10-09T09:56:11.370Z,33.25
2022-10-09T09:59:41.130Z,32.71
2022-10-09T10:02:46.486Z,31.33
2022-10-09T10:05:50.142Z,31.54
2022-10-09T10:09:06.475Z,30.95
2022-10-09T10:12:18.039Z,31.48
2022-10-09T10:15:23.568Z,31.81
2022-10-09T10:18:28.950Z,31.85
2022-10-09T10:21:42.066Z,31.38
2022-10-09T10:24:48.650Z,33.04
2022-10-09T10:27:58.581Z,33.73
2022-10-09T10:31:05.242Z,32.46
2022-10-09T10:34:17.891Z,32.15
2022-10-09T10:37:29.715Z,32.01
2022-10-09T10:40:53.016Z,33.62
2022-10-09T10:44:07.242Z,35.19
2022-10-09T10:47:24.491Z,34.15
2022-10-09T10:50:37.340Z,34.04
2022-10-09T10:53:55.351Z,35.20
2022-10-09T10:57:16.984Z,34.20
2022-10-09T11:00:19.862Z,34.42
2022-10-09T11:04:19.401Z,33.39
2022-10-09T11:07:31.718Z,33.31
2022-10-09T11:10:37.346Z,32.07
2022-10-09T11:13:56.318Z,33.25
2022-10-09T11:17:17.232Z,32.20
2022-10-09T11:20:28.928Z,31.92
2022-10-09T11:24:09.392Z,31.60
2022-10-09T11:27:34.900Z,33.22
2022-10-09T11:30:43.118Z,31.87
2022-10-09T11:34:07.453Z,31.69
2022-10-09T11:37:20.315Z,31.28
2022-10-09T11:40:43.007Z,31.92
2022-10-09T11:43:51.835Z,32.85
2022-10-09T11:47:16.872Z,32.42
2022-10-09T11:50:50.564Z,33.03
2022-10-09T11:53:53.977Z,32.53
2022-10-09T11:57:06.008Z,31.90
2022-10-09T12:00:11.011Z,32.24
2022-10-09T12:03:30.149Z,30.69
2022-10-09T12:06:45.163Z,29.77
2022-10-09T12:09:49.464Z,30.45
2022-10-09T12:13:04.683Z,30.30
2022-10-09T12:16:10.936Z,30.32
2022-10-09T12:19:21.980Z,29.98
2022-10-09T12:22:36.123Z,30.26
2022-10-09T12:25:43.538Z,30.12
2022-10-09T12:28:46.461Z,30.07
2022-10-09T12:31:52.992Z,29.90
2022-10-09T12:34:56.940Z,30.78
2022-10-09T12:37:59.648Z,31.22
2022-10-09T12:41:10.824Z,30.76
2022-10-09T12:44:25.784Z,30.43
2022-10-09T12:47:30.078Z,31.22
2022-10-09T12:50:35.253Z,30.69
2022-10-09T12:53:47.445Z,30.98
2022-10-09T12:56:50.272Z,31.42
2022-10-09T12:59:54.740Z,31.86
2022-10-09T13:02:57.482Z,32.30
2022-10-09T13:06:04.221Z,31.27
2022-10-09T13:09:20.602Z,31.58
2022-10-09T13:12:26.905Z,30.77
2022-10-09T13:15:37.386Z,31.43
2022-10-09T13:18:40.449Z,31.63
2022-10-09T13:21:43.062Z,31.81
2022-10-09T13:24:48.088Z,31.96
2022-10-09T13:27:50.994Z,32.36
2022-10-09T13:30:54.055Z,33.84
2022-10-09T13:33:56.827Z,34.50
2022-10-09T13:36:59.681Z,34.80
2022-10-09T13:40:02.429Z,35.84
2022-10-09T13:43:06.019Z,37.16
2022-10-09T13:46:09.187Z,38.27
2022-10-09T13:49:12.194Z,38.87
2022-10-09T13:52:15.061Z,38.41
2022-10-09T13:55:18.091Z,38.83
2022-10-09T13:58:21.872Z,39.39
2022-10-09T14:01:24.935Z,40.34
2022-10-09T14:04:28.634Z,40.72
2022-10-09T14:07:31.257Z,40.91
2022-10-09T14:10:34.374Z,41.85
2022-10-09T14:13:37.060Z,42.75
2022-10-09T14:16:40.060Z,42.70
2022-10-09T14:19:42.636Z,43.02
2022-10-09T14:22:45.843Z,43.17
2022-10-09T14:25:48.543Z,42.65
2022-10-09T14:28:52.586Z,43.98
2022-10-09T14:31:55.244Z,44.38
2022-10-09T14:34:58.155Z,44.54
2022-10-09T14:38:00.730Z,45.10
2022-10-09T14:41:03.883Z,45.39
2022-10-09T14:44:07.397Z,45.34
2022-10-09T14:47:10.483Z,46.13
2022-10-09T14:50:13.106Z,46.48
2022-10-09T14:53:16.250Z,46.59
2022-10-09T14:56:21.327Z,46.37
2022-10-09T14:59:24.829Z,46.90
2022-10-09T15:02:27.388Z,47.32
2022-10-09T15:05:30.884Z,48.34
2022-10-09T15:08:35.184Z,48.94
2022-10-09T15:11:39.652Z,49.04
2022-10-09T15:14:42.195Z,49.83
2022-10-09T15:17:46.824Z,49.73
2022-10-09T15:20:49.581Z,50.51
2022-10-09T15:23:56.814Z,49.54
2022-10-09T15:26:59.597Z,49.78
2022-10-09T15:30:02.760Z,50.09
2022-10-09T15:33:05.403Z,51.46
2022-10-09T15:36:10.768Z,51.79
2022-10-09T15:39:14.421Z,52.20
2022-10-09T15:42:17.401Z,52.67
2022-10-09T15:45:20.030Z,52.44
2022-10-09T15:48:24.913Z,53.62
2022-10-09T15:51:30.440Z,53.88
2022-10-09T15:54:33.301Z,56.06
2022-10-09T15:57:35.927Z,56.85
2022-10-09T16:00:41.243Z,56.32
2022-10-09T16:03:46.012Z,56.60
2022-10-09T16:06:48.571Z,58.22
2022-10-09T16:09:51.741Z,61.31
2022-10-09T16:12:54.305Z,62.37
2022-10-09T16:15:57.345Z,62.91
2022-10-09T16:19:02.218Z,64.95
2022-10-09T16:22:06.147Z,65.45
2022-10-09T16:25:11.586Z,66.40
2022-10-09T16:28:14.955Z,66.97
2022-10-09T16:31:30.524Z,67.01
2022-10-09T16:34:33.434Z,67.12
2022-10-09T16:37:36.125Z,67.10
2022-10-09T16:41:01.298Z,67.78
2022-10-09T16:44:06.499Z,68.15
2022-10-09T16:47:09.938Z,67.90
2022-10-09T16:50:14.322Z,68.31
2022-10-09T16:53:17.187Z,67.25
2022-10-09T16:56:23.193Z,69.24
2022-10-09T16:59:26.179Z,69.96
2022-10-09T17:02:29.062Z,69.96
2022-10-09T17:05:32.027Z,70.60
2022-10-09T17:08:34.930Z,70.78
2022-10-09T17:11:40.261Z,71.61
2022-10-09T17:14:44.253Z,71.41
2022-10-09T17:17:47.878Z,71.82
2022-10-09T17:20:50.723Z,72.02
2022-10-09T17:23:59.404Z,72.19
2022-10-09T17:27:02.043Z,71.67
2022-10-09T17:30:07.922Z,72.13
2022-10-09T17:33:10.692Z,70.91
2022-10-09T17:36:19.065Z,72.62
2022-10-09T17:39:21.757Z,72.56
2022-10-09T17:42:25.003Z,73.42
2022-10-09T17:45:28.079Z,73.50
2022-10-09T17:48:36.117Z,73.92
2022-10-09T17:51:41.706Z,74.29
2022-10-09T17:54:44.682Z,74.81
2022-10-09T17:57:47.409Z,75.73
2022-10-09T18:00:52.815Z,75.68
2022-10-09T18:03:56.252Z,75.70
2022-10-09T18:07:00.165Z,75.24
2022-10-09T18:10:07.233Z,76.66
2022-10-09T18:13:11.511Z,77.60
2022-10-09T18:16:18.187Z,77.56
2022-10-09T18:19:22.127Z,76.77
2022-10-09T18:22:25.304Z,76.95
2022-10-09T18:25:27.874Z,77.53
2022-10-09T18:28:31.035Z,77.35
2022-10-09T18:31:33.900Z,77.01
2022-10-09T18:34:39.265Z,78.24
2022-10-09T18:37:42.570Z,78.60
2022-10-09T18:40:46.040Z,77.93
2022-10-09T18:43:56.841Z,77.00
2022-10-09T18:47:00.742Z,76.93
2022-10-09T18:50:09.858Z,78.57
2022-10-09T18:53:13.351Z,79.06
2022-10-09T18:56:19.454Z,78.32
2022-10-09T18:59:23.502Z,78.01
2022-10-09T19:02:27.654Z,78.71
2022-10-09T19:08:34.672Z,77.69
2022-10-09T19:11:38.917Z,77.58
2022-10-09T19:14:42.589Z,77.45
2022-10-09T19:17:45.814Z,77.33
2022-10-09T19:20:49.187Z,77.73
2022-10-09T19:24:12.050Z,77.23
2022-10-09T19:27:15.231Z,77.97
2022-10-09T19:30:17.943Z,78.08
2022-10-09T19:33:20.883Z,77.72
2022-10-09T19:36:24.475Z,77.51
2022-10-09T19:39:28.111Z,78.37
2022-10-09T19:42:30.639Z,79.95
2022-10-09T19:45:33.620Z,80.77
2022-10-09T19:48:36.990Z,80.33
2022-10-09T19:51:42.555Z,79.73
2022-10-09T19:54:45.148Z,79.80
2022-10-09T19:57:48.535Z,79.07
2022-10-09T20:00:51.468Z,79.24
2022-10-09T20:04:01.616Z,79.28
2022-10-09T20:07:06.087Z,79.15
2022-10-09T20:10:12.022Z,79.01
2022-10-09T20:13:14.777Z,79.27
2022-10-09T20:16:18.765Z,79.22
2022-10-09T20:19:21.415Z,80.33
2022-10-09T20:22:24.578Z,80.18
2022-10-09T20:25:27.835Z,79.31
2022-10-09T20:28:37.540Z,81.05
2022-10-09T20:31:40.253Z,80.87
2022-10-09T20:34:44.408Z,81.63
2022-10-09T20:37:47.056Z,82.17
2022-10-09T20:40:50.108Z,81.90
2022-10-09T20:43:53.769Z,81.33
2022-10-09T20:46:57.092Z,81.96
2022-10-09T20:50:00.765Z,81.24
2022-10-09T20:53:04.570Z,82.26
2022-10-09T20:56:11.221Z,82.24
2022-10-09T20:59:14.998Z,82.45
2022-10-09T21:02:17.835Z,83.19
2022-10-09T21:05:20.896Z,82.88
2022-10-09T21:08:23.497Z,82.58
2022-10-09T21:11:26.604Z,83.20
2022-10-09T21:14:29.328Z,83.20
2022-10-09T21:17:32.507Z,83.10
2022-10-09T21:20:42.652Z,82.69
2022-10-09T21:23:46.143Z,81.94
2022-10-09T21:26:48.793Z,81.68
2022-10-09T21:29:51.732Z,81.76
2022-10-09T21:32:54.829Z,82.51
2022-10-09T21:35:57.834Z,82.10
2022-10-09T21:39:03.252Z,81.63
2022-10-09T21:42:07.665Z,82.25
2022-10-09T21:45:10.899Z,82.55
2022-10-09T21:48:16.774Z,82.46
2022-10-09T21:51:21.870Z,82.40
2022-10-09T21:54:24.943Z,82.70
2022-10-09T21:57:28.988Z,82.61
2022-10-09T22:00:31.907Z,83.09
2022-10-09T22:03:37.495Z,82.65
2022-10-09T22:06:41.291Z,81.54
2022-10-09T22:09:45.629Z,81.62
2022-10-09T22:12:48.538Z,81.47
2022-10-09T22:15:52.149Z,80.43
2022-10-09T22:18:54.749Z,81.81
2022-10-09T22:21:57.645Z,81.24
2022-10-09T22:25:00.588Z,81.69
2022-10-09T22:28:04.643Z,81.93
2022-10-09T22:31:11.832Z,82.88
2022-10-09T22:34:15.311Z,82.20
2022-10-09T22:37:18.250Z,83.71
2022-10-09T22:40:21.155Z,82.44
2022-10-09T22:43:23.803Z,82.53
2022-10-09T22:46:28.929Z,82.80
2022-10-09T22:49:31.546Z,82.75
2022-10-09T22:52:34.433Z,82.44
2022-10-09T22:55:40.967Z,82.85
2022-10-09T22:58:44.647Z,83.16
2022-10-09T23:01:54.142Z,82.96
2022-10-09T23:04:57.327Z,82.54
2022-10-09T23:07:59.934Z,83.25
2022-10-09T23:11:05.208Z,83.13
2022-10-09T23:14:10.818Z,83.21
2022-10-09T23:17:13.902Z,82.93
2022-10-09T23:20:16.484Z,82.14
2022-10-09T23:23:19.419Z,82.67
2022-10-09T23:26:31.235Z,83.40
2022-10-09T23:29:34.213Z,83.03
2022-10-09T23:32:36.895Z,83.32
2022-10-09T23:35:41.308Z,83.94
2022-10-09T23:38:44.505Z,82.54
2022-10-09T23:41:47.328Z,83.53
2022-10-09T23:44:49.965Z,82.99
2022-10-09T23:47:53.136Z,83.71
2022-10-09T23:50:56.761Z,83.05
2022-10-09T23:54:00.362Z,84.25
2022-10-09T23:57:03.053Z,83.65
